x

Central Gulf Of Alaska - 265nm West Of Cape Ommaney, Akk (46085) Wave Buoy

5:50am - Mon 23rd Oct 2017 All times are UTC.

  • Sig Wave height 8.2ft
  • Peak Period 12s
  • Average Period 7s
  • Wind
    13mph, 16mph gusts
  • Sea Temp 51°f
  • Air Temp 43°f
  • Sea Pressure 1009.5mb

More Historic Weather Station data

Upgrade to MSW Pro to gain access to the past 30 days of data for over 8000 Wavebouys and Weather Stations around the globe.

Join

Comparision Forecast

View Surf forecast
   
Mon 10/23 5:50am 8ft 12s 7s 13 16 mph 1009.5mb 51f 43f
4:50am 9ft 12s 8s 9 13 mph 1009.3mb 51f 41f
3:50am 10ft 11s 8s 13 18 mph 1008.1mb 51f 43f
2:50am 11ft 13s 9s 11 16 mph 1007.5mb 51f 47f
1:50am 10ft 15s 8s 11 13 mph 1007mb 51f 46f
12:50am 11.5ft 12s 9s 11 16 mph 1006.5mb 51f 46f
Sun 10/22 11:50pm 9ft 13s 8s 13 18 mph 1005.8mb 51f 46f
10:50pm 9ft 14s 7s 16 20 mph 1005mb 51f 46f
9:50pm 9ft 10s 7s 16 20 mph 1003.7mb 51f 46f
8:50pm 8.5ft 8s 7s 13 20 mph 1002.9mb 51f 46f
7:50pm 8.5ft 11s 6s 18 22 mph 1001.7mb 51f 45f
6:50pm 9ft 9s 7s 16 22 mph 1000.4mb 51f 44f
5:50pm 9ft 8s 6s 16 18 mph 998.9mb 51f 44f
4:50pm 9ft 9s 6s 20 22 mph 997.5mb 51f 44f
3:50pm 9.5ft 8s 7s 20 27 mph 995.7mb 51f 45f
2:50pm 9ft 9s 7s 9 13 mph 994.5mb 51f 48f
1:50pm 10ft 9s 8s 9 11 mph 993.4mb 51f 48f
12:50pm 10ft 9s 7s 4 7 mph 992.5mb 51f 48f
11:50am 11ft 10s 7s 2 7 mph 991.4mb 51f 48f
10:50am 12ft 11s 7s  -  2 mph 990.4mb 51f 48f
9:50am 11.5ft 10s 7s 2 4 mph 989.3mb 51f 48f
8:50am 13ft 11s 7s 4 9 mph 988.3mb 51f 48f
7:50am 12.5ft 11s 7s 7 11 mph 987.2mb 51f 48f
6:50am 14ft 11s 8s 7 9 mph 986.1mb 51f 48f
5:50am 14.5ft 10s 8s 9 13 mph 984.8mb 51f 47f
4:50am 13ft 10s 8s 11 13 mph 983.7mb 51f 47f
3:50am 11ft 9s 7s 13 16 mph 982.7mb 51f 48f
2:50am 9.5ft 9s 7s 13 18 mph 981.8mb 51f 47f
1:50am 8.5ft 9s 6s 18 22 mph 980.9mb 51f 47f
12:50am 9ft 9s 6s 18 20 mph 980.1mb 51f 46f
Sat 10/21 11:50pm 9.5ft 8s 6s 16 18 mph 979.4mb 51f 46f
10:50pm 11.5ft 8s 7s 18 22 mph 978.9mb 51f 46f
9:50pm 11ft 8s 6s 18 22 mph 978.7mb 51f 47f
8:50pm 12.5ft 8s 7s 25 36 mph 978.1mb 51f 49f
7:50pm 11ft 8s 6s 25 31 mph 978.1mb 51f 49f
6:50pm 9ft 7s 6s 25 34 mph 978.1mb 51f 49f
5:50pm 9ft 7s 5s 25 29 mph 978.4mb 51f 48f
4:50pm 8ft 7s 5s 25 29 mph 978.9mb 51f 48f
3:50pm 7ft 6s 5s 25 31 mph 979.6mb 51f 47f
2:50pm 7ft 5s 5s 22 27 mph 980.7mb 51f 46f
1:50pm 6.5ft 6s 5s 27 31 mph 981.7mb 51f 46f
12:50pm 7ft 6s 5s 27 34 mph 982.9mb 51f 45f
11:50am 7ft 6s 5s 25 29 mph 984.3mb 51f 45f
10:50am 6ft 5s 5s 27 36 mph 985.5mb 51f 45f
9:50am 6.5ft 5s 5s 22 27 mph 986.7mb 51f 46f
8:50am 6.5ft 9s 6s 20 27 mph 987.6mb 51f 46f
7:50am 7ft 9s 6s 20 25 mph 988.6mb 51f 45f
6:50am 8ft 10s 7s 20 22 mph 989.4mb 51f 45f
5:50am 7.5ft 10s 6s 18 22 mph 990.3mb 51f 45f
4:50am 8.5ft 11s 7s 16 20 mph 991.1mb 51f 45f
3:50am 8ft 10s 7s 13 18 mph 991.7mb 51f 44f
2:50am 9ft 11s 7s 11 13 mph 992.2mb 51f 44f
1:50am 8.5ft 11s 7s 9 16 mph 992.3mb 51f 44f
12:50am 9.5ft 11s 8s 7 11 mph 992.5mb 51f 44f
Fri 10/20 11:50pm 9.5ft 11s 8s 9 13 mph 992.7mb 51f 44f
10:50pm 9.5ft 11s 8s 11 13 mph 993mb 51f 43f
9:50pm 9ft 11s 7s 13 18 mph 993.1mb 51f 43f
8:50pm 9.5ft 11s 7s 13 18 mph 993.2mb 51f 42f
7:50pm 9.5ft 11s 7s 11 25 mph 993.2mb 51f 41f
6:50pm 9.5ft 10s 7s 11 13 mph 993.2mb 51f 39f
5:50pm 11ft 11s 8s 7 13 mph 993mb 51f 40f
4:50pm 11ft 11s 7s 11 13 mph 993mb 50f 40f
3:50pm 12.5ft 10s  -  13 16 mph 992.8mb 50f 40f
2:50pm 12ft 11s 7s 20 27 mph 992.5mb 50f 41f
1:50pm 12ft 11s 8s 11 16 mph 992.6mb 51f 41f
12:50pm 14ft 12s 8s 9 13 mph 992.6mb 51f 40f
11:50am 13ft 11s 8s 18 29 mph 992.2mb 51f 40f
10:50am 14ft 11s 8s 18 22 mph 991.7mb 51f 44f
9:50am 13.5ft 11s 7s 22 27 mph 991.4mb 51f 44f
8:50am 13ft 11s 7s 27 34 mph 991.1mb 51f 44f
7:50am 13.5ft 12s 7s 20 27 mph 991.1mb 51f 40f
6:50am 14.5ft 11s 8s 25 29 mph 990.7mb 51f 42f
5:50am 13ft 11s 7s 25 31 mph 990.4mb 50f 39f
4:50am 14ft 11s 7s 20 25 mph 990.2mb 50f 39f
3:50am 14.5ft 13s 7s 27 34 mph 989.2mb 51f 43f
2:50am 14.5ft 12s 7s 29 36 mph 988.6mb 50f 44f
1:50am 15ft 12s 7s 27 31 mph 988.3mb 50f 44f
12:50am 14.5ft 11s 7s 29 36 mph 987.5mb 50f 44f
Thu 10/19 11:50pm 15ft 11s 7s 22 29 mph 987.3mb 50f 42f
10:50pm 15ft 12s 7s 27 34 mph 987.1mb 50f 41f
9:50pm 15.5ft 11s 7s 25 31 mph 986.2mb 51f 45f
8:50pm 15ft 12s 8s 25 34 mph 986.1mb 51f 40f
7:50pm 14ft 11s 7s 27 31 mph 985.2mb 51f 45f
6:50pm 14.5ft 13s 8s 27 34 mph 984.8mb 51f 45f
5:50pm 15ft 14s 7s 31 38 mph 984.2mb 50f 44f
4:50pm 14ft 13s 7s 29 38 mph 983.8mb 51f 45f
3:50pm 15ft 14s 7s 29 36 mph 983.2mb 51f 46f
2:50pm 14ft 14s 7s 27 34 mph 983.2mb 50f 45f
1:50pm 14ft 12s 7s 29 36 mph 982.9mb 50f 46f
12:50pm 15ft 15s 7s 29 36 mph 982.7mb 51f 46f
11:50am 16.5ft 12s 7s 31 38 mph 982.4mb 50f 46f
10:50am 15ft 12s 7s 31 38 mph 982.2mb 50f 46f
9:50am 13ft 16s 7s 31 40 mph 981.4mb 51f 47f
8:50am 15ft 16s 8s 27 34 mph 980.7mb 51f 48f
7:50am 14ft 15s 8s 25 34 mph 980.3mb 51f 47f